sensor_id;sensor_type;location;lat;lon;timestamp;temperature;humidity
83283;DHT22;73190;50.780;5.658;2024-03-02T00:00:22;11.60;62.80
83283;DHT22;73190;50.780;5.658;2024-03-02T00:02:51;11.50;63.50
83283;DHT22;73190;50.780;5.658;2024-03-02T00:05:20;11.50;64.20
83283;DHT22;73190;50.780;5.658;2024-03-02T00:07:54;11.60;63.00
83283;DHT22;73190;50.780;5.658;2024-03-02T00:10:25;11.60;63.40
83283;DHT22;73190;50.780;5.658;2024-03-02T00:12:56;11.60;62.90
83283;DHT22;73190;50.780;5.658;2024-03-02T00:18:01;11.60;63.20
83283;DHT22;73190;50.780;5.658;2024-03-02T00:20:30;11.60;63.80
83283;DHT22;73190;50.780;5.658;2024-03-02T00:23:06;11.50;63.80
83283;DHT22;73190;50.780;5.658;2024-03-02T00:25:44;11.50;64.00
83283;DHT22;73190;50.780;5.658;2024-03-02T00:28:19;11.60;63.60
83283;DHT22;73190;50.780;5.658;2024-03-02T00:30:58;11.70;63.10
83283;DHT22;73190;50.780;5.658;2024-03-02T00:33:30;11.80;63.60
83283;DHT22;73190;50.780;5.658;2024-03-02T00:35:57;11.90;61.90
83283;DHT22;73190;50.780;5.658;2024-03-02T00:38:27;11.80;62.60
83283;DHT22;73190;50.780;5.658;2024-03-02T00:40:55;11.80;62.80
83283;DHT22;73190;50.780;5.658;2024-03-02T00:43:36;11.80;63.50
83283;DHT22;73190;50.780;5.658;2024-03-02T00:45:57;11.70;64.90
83283;DHT22;73190;50.780;5.658;2024-03-02T00:48:25;11.50;66.40
83283;DHT22;73190;50.780;5.658;2024-03-02T00:50:53;11.30;68.30
83283;DHT22;73190;50.780;5.658;2024-03-02T00:53:23;11.00;72.30
83283;DHT22;73190;50.780;5.658;2024-03-02T00:55:52;10.70;76.30
83283;DHT22;73190;50.780;5.658;2024-03-02T00:58:20;10.30;76.90
83283;DHT22;73190;50.780;5.658;2024-03-02T01:00:47;10.10;77.70
83283;DHT22;73190;50.780;5.658;2024-03-02T01:03:15;9.80;79.80
83283;DHT22;73190;50.780;5.658;2024-03-02T01:05:43;9.70;80.00
83283;DHT22;73190;50.780;5.658;2024-03-02T01:08:11;9.70;80.60
83283;DHT22;73190;50.780;5.658;2024-03-02T01:10:39;9.70;81.10
83283;DHT22;73190;50.780;5.658;2024-03-02T01:13:06;9.80;78.50
83283;DHT22;73190;50.780;5.658;2024-03-02T01:15:34;9.70;77.00
83283;DHT22;73190;50.780;5.658;2024-03-02T01:18:02;9.70;76.90
83283;DHT22;73190;50.780;5.658;2024-03-02T01:20:30;9.70;76.50
83283;DHT22;73190;50.780;5.658;2024-03-02T01:22:58;9.80;75.80
83283;DHT22;73190;50.780;5.658;2024-03-02T01:25:25;9.70;76.60
83283;DHT22;73190;50.780;5.658;2024-03-02T01:27:53;9.80;75.40
83283;DHT22;73190;50.780;5.658;2024-03-02T01:30:20;9.70;75.80
83283;DHT22;73190;50.780;5.658;2024-03-02T01:32:48;9.70;76.60
83283;DHT22;73190;50.780;5.658;2024-03-02T01:35:15;9.60;77.50
83283;DHT22;73190;50.780;5.658;2024-03-02T01:37:43;9.60;77.30
83283;DHT22;73190;50.780;5.658;2024-03-02T01:40:11;9.60;77.80
83283;DHT22;73190;50.780;5.658;2024-03-02T01:42:39;9.60;78.60
83283;DHT22;73190;50.780;5.658;2024-03-02T01:45:08;9.50;80.50
83283;DHT22;73190;50.780;5.658;2024-03-02T01:47:36;9.50;80.50
83283;DHT22;73190;50.780;5.658;2024-03-02T01:50:03;9.60;80.50
83283;DHT22;73190;50.780;5.658;2024-03-02T01:52:31;9.60;79.40
83283;DHT22;73190;50.780;5.658;2024-03-02T01:54:58;9.60;79.60
83283;DHT22;73190;50.780;5.658;2024-03-02T01:57:26;9.70;78.90
83283;DHT22;73190;50.780;5.658;2024-03-02T01:59:53;9.70;77.50
83283;DHT22;73190;50.780;5.658;2024-03-02T02:02:21;9.60;78.50
83283;DHT22;73190;50.780;5.658;2024-03-02T02:04:49;9.60;77.90
83283;DHT22;73190;50.780;5.658;2024-03-02T02:07:16;9.60;77.90
83283;DHT22;73190;50.780;5.658;2024-03-02T02:09:44;9.50;77.60
83283;DHT22;73190;50.780;5.658;2024-03-02T02:12:11;9.60;77.90
83283;DHT22;73190;50.780;5.658;2024-03-02T02:14:39;9.60;77.30
83283;DHT22;73190;50.780;5.658;2024-03-02T02:17:09;9.60;77.70
83283;DHT22;73190;50.780;5.658;2024-03-02T02:19:37;9.60;77.80
83283;DHT22;73190;50.780;5.658;2024-03-02T02:22:05;9.50;78.00
83283;DHT22;73190;50.780;5.658;2024-03-02T02:24:32;9.60;76.80
83283;DHT22;73190;50.780;5.658;2024-03-02T02:27:00;9.60;77.20
83283;DHT22;73190;50.780;5.658;2024-03-02T02:29:28;9.60;77.10
83283;DHT22;73190;50.780;5.658;2024-03-02T02:31:56;9.70;76.40
83283;DHT22;73190;50.780;5.658;2024-03-02T02:34:23;9.70;76.30
83283;DHT22;73190;50.780;5.658;2024-03-02T02:36:51;9.90;75.60
83283;DHT22;73190;50.780;5.658;2024-03-02T02:39:21;9.80;76.70
83283;DHT22;73190;50.780;5.658;2024-03-02T02:41:49;9.90;75.30
83283;DHT22;73190;50.780;5.658;2024-03-02T02:44:16;9.90;74.50
83283;DHT22;73190;50.780;5.658;2024-03-02T02:46:44;9.90;73.60
83283;DHT22;73190;50.780;5.658;2024-03-02T02:49:12;9.70;73.30
83283;DHT22;73190;50.780;5.658;2024-03-02T02:51:39;9.40;74.30
83283;DHT22;73190;50.780;5.658;2024-03-02T02:54:07;9.40;75.30
83283;DHT22;73190;50.780;5.658;2024-03-02T02:56:34;9.40;74.90
83283;DHT22;73190;50.780;5.658;2024-03-02T02:59:02;9.30;74.70
83283;DHT22;73190;50.780;5.658;2024-03-02T03:01:29;9.40;74.30
83283;DHT22;73190;50.780;5.658;2024-03-02T03:04:16;9.30;74.50
83283;DHT22;73190;50.780;5.658;2024-03-02T03:06:43;9.20;75.40
83283;DHT22;73190;50.780;5.658;2024-03-02T03:09:12;9.30;75.40
83283;DHT22;73190;50.780;5.658;2024-03-02T03:11:40;9.30;75.40
83283;DHT22;73190;50.780;5.658;2024-03-02T03:14:07;9.40;74.50
83283;DHT22;73190;50.780;5.658;2024-03-02T03:16:35;9.40;74.80
83283;DHT22;73190;50.780;5.658;2024-03-02T03:19:03;9.50;74.90
83283;DHT22;73190;50.780;5.658;2024-03-02T03:21:30;9.50;74.50
83283;DHT22;73190;50.780;5.658;2024-03-02T03:23:58;9.40;75.40
83283;DHT22;73190;50.780;5.658;2024-03-02T03:26:25;9.40;75.70
83283;DHT22;73190;50.780;5.658;2024-03-02T03:28:54;9.40;75.30
83283;DHT22;73190;50.780;5.658;2024-03-02T03:31:22;9.30;76.20
83283;DHT22;73190;50.780;5.658;2024-03-02T03:33:50;9.20;76.80
83283;DHT22;73190;50.780;5.658;2024-03-02T03:36:17;9.20;77.60
83283;DHT22;73190;50.780;5.658;2024-03-02T03:38:45;9.30;77.30
83283;DHT22;73190;50.780;5.658;2024-03-02T03:41:12;9.40;77.00
83283;DHT22;73190;50.780;5.658;2024-03-02T03:43:40;9.30;78.50
83283;DHT22;73190;50.780;5.658;2024-03-02T03:46:07;9.40;77.10
83283;DHT22;73190;50.780;5.658;2024-03-02T03:48:35;9.40;77.50
83283;DHT22;73190;50.780;5.658;2024-03-02T03:51:03;9.40;77.50
83283;DHT22;73190;50.780;5.658;2024-03-02T03:53:31;9.40;78.00
83283;DHT22;73190;50.780;5.658;2024-03-02T03:55:58;9.40;78.10
83283;DHT22;73190;50.780;5.658;2024-03-02T03:58:26;9.40;77.40
83283;DHT22;73190;50.780;5.658;2024-03-02T04:00:53;9.50;76.40
83283;DHT22;73190;50.780;5.658;2024-03-02T04:03:21;9.50;76.70
83283;DHT22;73190;50.780;5.658;2024-03-02T04:05:48;9.40;76.70
83283;DHT22;73190;50.780;5.658;2024-03-02T04:08:16;9.40;77.40
83283;DHT22;73190;50.780;5.658;2024-03-02T04:10:44;9.20;78.50
83283;DHT22;73190;50.780;5.658;2024-03-02T04:13:11;9.50;76.20
83283;DHT22;73190;50.780;5.658;2024-03-02T04:15:39;9.60;74.80
83283;DHT22;73190;50.780;5.658;2024-03-02T04:18:07;9.50;74.60
83283;DHT22;73190;50.780;5.658;2024-03-02T04:20:34;9.50;74.00
83283;DHT22;73190;50.780;5.658;2024-03-02T04:23:02;9.60;73.30
83283;DHT22;73190;50.780;5.658;2024-03-02T04:25:29;9.60;72.50
83283;DHT22;73190;50.780;5.658;2024-03-02T04:27:57;9.50;73.70
83283;DHT22;73190;50.780;5.658;2024-03-02T04:30:24;9.50;73.40
83283;DHT22;73190;50.780;5.658;2024-03-02T04:32:52;9.40;73.30
83283;DHT22;73190;50.780;5.658;2024-03-02T04:35:19;9.60;72.30
83283;DHT22;73190;50.780;5.658;2024-03-02T04:37:47;9.60;72.00
83283;DHT22;73190;50.780;5.658;2024-03-02T04:40:15;9.70;71.70
83283;DHT22;73190;50.780;5.658;2024-03-02T04:42:42;9.60;71.70
83283;DHT22;73190;50.780;5.658;2024-03-02T04:45:10;9.70;71.20
83283;DHT22;73190;50.780;5.658;2024-03-02T04:47:37;9.60;71.20
83283;DHT22;73190;50.780;5.658;2024-03-02T04:50:06;9.70;70.80
83283;DHT22;73190;50.780;5.658;2024-03-02T04:52:34;9.50;71.00
83283;DHT22;73190;50.780;5.658;2024-03-02T04:55:01;9.40;71.90
83283;DHT22;73190;50.780;5.658;2024-03-02T04:57:47;9.30;72.80
83283;DHT22;73190;50.780;5.658;2024-03-02T05:00:16;9.40;72.20
83283;DHT22;73190;50.780;5.658;2024-03-02T05:02:44;9.40;71.50
83283;DHT22;73190;50.780;5.658;2024-03-02T05:05:11;9.30;71.50
83283;DHT22;73190;50.780;5.658;2024-03-02T05:07:39;9.20;72.90
83283;DHT22;73190;50.780;5.658;2024-03-02T05:10:10;9.30;72.50
83283;DHT22;73190;50.780;5.658;2024-03-02T05:12:39;9.30;71.40
83283;DHT22;73190;50.780;5.658;2024-03-02T05:15:13;9.30;71.80
83283;DHT22;73190;50.780;5.658;2024-03-02T05:17:42;9.20;72.60
83283;DHT22;73190;50.780;5.658;2024-03-02T05:20:12;9.20;73.00
83283;DHT22;73190;50.780;5.658;2024-03-02T05:22:40;9.30;72.30
83283;DHT22;73190;50.780;5.658;2024-03-02T05:25:08;9.30;71.90
83283;DHT22;73190;50.780;5.658;2024-03-02T05:27:37;9.40;72.20
83283;DHT22;73190;50.780;5.658;2024-03-02T05:30:05;9.20;72.60
83283;DHT22;73190;50.780;5.658;2024-03-02T05:32:33;9.30;72.00
83283;DHT22;73190;50.780;5.658;2024-03-02T05:35:01;9.30;71.90
83283;DHT22;73190;50.780;5.658;2024-03-02T05:37:29;9.30;72.00
83283;DHT22;73190;50.780;5.658;2024-03-02T05:39:56;9.30;72.20
83283;DHT22;73190;50.780;5.658;2024-03-02T05:42:26;9.30;72.40
83283;DHT22;73190;50.780;5.658;2024-03-02T05:44:54;9.30;71.60
83283;DHT22;73190;50.780;5.658;2024-03-02T05:47:21;9.10;73.10
83283;DHT22;73190;50.780;5.658;2024-03-02T05:49:49;9.00;73.70
83283;DHT22;73190;50.780;5.658;2024-03-02T05:52:16;9.00;73.90
83283;DHT22;73190;50.780;5.658;2024-03-02T05:54:44;9.10;73.30
83283;DHT22;73190;50.780;5.658;2024-03-02T05:57:11;9.30;72.40
83283;DHT22;73190;50.780;5.658;2024-03-02T05:59:57;9.20;72.50
83283;DHT22;73190;50.780;5.658;2024-03-02T06:02:25;9.30;72.30
83283;DHT22;73190;50.780;5.658;2024-03-02T06:04:55;9.40;71.60
83283;DHT22;73190;50.780;5.658;2024-03-02T06:07:23;9.40;71.60
83283;DHT22;73190;50.780;5.658;2024-03-02T06:09:50;9.30;72.30
83283;DHT22;73190;50.780;5.658;2024-03-02T06:12:19;9.20;72.30
83283;DHT22;73190;50.780;5.658;2024-03-02T06:14:46;9.10;72.80
83283;DHT22;73190;50.780;5.658;2024-03-02T06:17:14;9.10;73.10
83283;DHT22;73190;50.780;5.658;2024-03-02T06:19:41;9.00;73.90
83283;DHT22;73190;50.780;5.658;2024-03-02T06:22:09;9.00;73.60
83283;DHT22;73190;50.780;5.658;2024-03-02T06:24:37;9.10;73.40
83283;DHT22;73190;50.780;5.658;2024-03-02T06:27:05;9.00;73.70
83283;DHT22;73190;50.780;5.658;2024-03-02T06:29:35;9.00;73.60
83283;DHT22;73190;50.780;5.658;2024-03-02T06:32:03;9.00;74.00
83283;DHT22;73190;50.780;5.658;2024-03-02T06:34:31;9.00;73.70
83283;DHT22;73190;50.780;5.658;2024-03-02T06:36:58;9.10;73.50
83283;DHT22;73190;50.780;5.658;2024-03-02T06:39:26;9.10;74.00
83283;DHT22;73190;50.780;5.658;2024-03-02T06:41:53;9.10;73.70
83283;DHT22;73190;50.780;5.658;2024-03-02T06:44:21;9.30;72.50
83283;DHT22;73190;50.780;5.658;2024-03-02T06:46:48;9.30;72.90
83283;DHT22;73190;50.780;5.658;2024-03-02T06:49:16;9.20;73.10
83283;DHT22;73190;50.780;5.658;2024-03-02T06:51:44;9.40;72.40
83283;DHT22;73190;50.780;5.658;2024-03-02T06:54:12;9.40;72.40
83283;DHT22;73190;50.780;5.658;2024-03-02T06:56:40;9.60;71.90
83283;DHT22;73190;50.780;5.658;2024-03-02T06:59:07;9.50;72.10
83283;DHT22;73190;50.780;5.658;2024-03-02T07:01:35;9.40;73.10
83283;DHT22;73190;50.780;5.658;2024-03-02T07:04:02;9.40;73.10
83283;DHT22;73190;50.780;5.658;2024-03-02T07:06:31;9.50;72.00
83283;DHT22;73190;50.780;5.658;2024-03-02T07:08:59;9.50;72.30
83283;DHT22;73190;50.780;5.658;2024-03-02T07:11:26;9.50;72.80
83283;DHT22;73190;50.780;5.658;2024-03-02T07:13:54;9.60;72.40
83283;DHT22;73190;50.780;5.658;2024-03-02T07:16:21;9.70;71.80
83283;DHT22;73190;50.780;5.658;2024-03-02T07:18:56;9.90;70.80
83283;DHT22;73190;50.780;5.658;2024-03-02T07:21:25;9.90;70.60
83283;DHT22;73190;50.780;5.658;2024-03-02T07:23:52;9.90;71.60
83283;DHT22;73190;50.780;5.658;2024-03-02T07:26:20;9.70;72.10
83283;DHT22;73190;50.780;5.658;2024-03-02T07:28:48;9.90;71.50
83283;DHT22;73190;50.780;5.658;2024-03-02T07:31:16;9.70;71.70
83283;DHT22;73190;50.780;5.658;2024-03-02T07:33:47;9.70;71.90
83283;DHT22;73190;50.780;5.658;2024-03-02T07:36:14;9.70;72.00
83283;DHT22;73190;50.780;5.658;2024-03-02T07:38:43;9.80;72.30
83283;DHT22;73190;50.780;5.658;2024-03-02T07:41:11;9.90;72.10
83283;DHT22;73190;50.780;5.658;2024-03-02T07:43:39;10.00;70.50
83283;DHT22;73190;50.780;5.658;2024-03-02T07:46:06;10.00;71.20
83283;DHT22;73190;50.780;5.658;2024-03-02T07:48:34;9.90;72.00
83283;DHT22;73190;50.780;5.658;2024-03-02T07:51:02;9.80;72.30
83283;DHT22;73190;50.780;5.658;2024-03-02T07:53:29;9.80;73.10
83283;DHT22;73190;50.780;5.658;2024-03-02T07:55:57;9.70;72.90
83283;DHT22;73190;50.780;5.658;2024-03-02T07:58:26;9.70;73.20
83283;DHT22;73190;50.780;5.658;2024-03-02T08:00:54;9.90;72.50
83283;DHT22;73190;50.780;5.658;2024-03-02T08:03:22;9.90;71.20
83283;DHT22;73190;50.780;5.658;2024-03-02T08:05:49;9.80;72.00
83283;DHT22;73190;50.780;5.658;2024-03-02T08:08:17;9.70;72.90
83283;DHT22;73190;50.780;5.658;2024-03-02T08:10:44;9.60;73.20
83283;DHT22;73190;50.780;5.658;2024-03-02T08:13:12;9.70;73.80
83283;DHT22;73190;50.780;5.658;2024-03-02T08:15:40;9.80;73.20
83283;DHT22;73190;50.780;5.658;2024-03-02T08:18:08;10.00;72.10
83283;DHT22;73190;50.780;5.658;2024-03-02T08:20:35;10.10;71.40
83283;DHT22;73190;50.780;5.658;2024-03-02T08:23:03;10.20;70.50
83283;DHT22;73190;50.780;5.658;2024-03-02T08:25:31;10.30;69.90
83283;DHT22;73190;50.780;5.658;2024-03-02T08:27:58;10.20;69.60
83283;DHT22;73190;50.780;5.658;2024-03-02T08:30:26;10.30;68.80
83283;DHT22;73190;50.780;5.658;2024-03-02T08:32:53;10.30;69.00
83283;DHT22;73190;50.780;5.658;2024-03-02T08:35:21;10.40;68.70
83283;DHT22;73190;50.780;5.658;2024-03-02T08:37:49;10.50;67.50
83283;DHT22;73190;50.780;5.658;2024-03-02T08:40:17;10.50;69.20
83283;DHT22;73190;50.780;5.658;2024-03-02T08:42:45;10.50;68.30
83283;DHT22;73190;50.780;5.658;2024-03-02T08:45:13;10.50;68.00
83283;DHT22;73190;50.780;5.658;2024-03-02T08:47:40;10.40;67.90
83283;DHT22;73190;50.780;5.658;2024-03-02T08:50:08;10.50;68.20
83283;DHT22;73190;50.780;5.658;2024-03-02T08:52:37;10.70;67.40
83283;DHT22;73190;50.780;5.658;2024-03-02T08:55:06;10.80;68.00
83283;DHT22;73190;50.780;5.658;2024-03-02T08:57:34;10.50;65.70
83283;DHT22;73190;50.780;5.658;2024-03-02T09:00:02;11.30;65.60
83283;DHT22;73190;50.780;5.658;2024-03-02T09:05:10;11.80;64.10
83283;DHT22;73190;50.780;5.658;2024-03-02T09:07:38;11.80;64.20
83283;DHT22;73190;50.780;5.658;2024-03-02T09:10:07;11.80;63.40
83283;DHT22;73190;50.780;5.658;2024-03-02T09:12:35;11.80;62.70
83283;DHT22;73190;50.780;5.658;2024-03-02T09:15:03;11.90;63.20
83283;DHT22;73190;50.780;5.658;2024-03-02T09:17:32;12.00;62.90
83283;DHT22;73190;50.780;5.658;2024-03-02T09:20:00;11.90;60.90
83283;DHT22;73190;50.780;5.658;2024-03-02T09:22:28;11.90;62.80
83283;DHT22;73190;50.780;5.658;2024-03-02T09:24:56;12.00;62.90
83283;DHT22;73190;50.780;5.658;2024-03-02T09:27:24;12.00;62.10
83283;DHT22;73190;50.780;5.658;2024-03-02T09:29:51;12.30;61.80
83283;DHT22;73190;50.780;5.658;2024-03-02T09:32:19;12.50;60.60
83283;DHT22;73190;50.780;5.658;2024-03-02T09:34:47;12.80;61.20
83283;DHT22;73190;50.780;5.658;2024-03-02T09:37:15;13.20;60.70
83283;DHT22;73190;50.780;5.658;2024-03-02T09:39:44;13.50;57.60
83283;DHT22;73190;50.780;5.658;2024-03-02T09:42:13;13.80;57.70
83283;DHT22;73190;50.780;5.658;2024-03-02T09:44:43;13.90;57.30
83283;DHT22;73190;50.780;5.658;2024-03-02T09:47:11;13.80;56.30
83283;DHT22;73190;50.780;5.658;2024-03-02T09:49:40;13.90;58.10
83283;DHT22;73190;50.780;5.658;2024-03-02T09:52:08;14.20;58.40
83283;DHT22;73190;50.780;5.658;2024-03-02T09:54:35;14.80;54.20
83283;DHT22;73190;50.780;5.658;2024-03-02T09:57:03;15.10;54.30
83283;DHT22;73190;50.780;5.658;2024-03-02T09:59:31;14.80;53.00
83283;DHT22;73190;50.780;5.658;2024-03-02T10:02:00;15.10;56.00
83283;DHT22;73190;50.780;5.658;2024-03-02T10:04:31;15.40;52.50
83283;DHT22;73190;50.780;5.658;2024-03-02T10:07:10;15.60;51.80
83283;DHT22;73190;50.780;5.658;2024-03-02T10:09:40;15.40;52.60
83283;DHT22;73190;50.780;5.658;2024-03-02T10:12:10;15.80;51.70
83283;DHT22;73190;50.780;5.658;2024-03-02T10:14:39;16.30;50.60
83283;DHT22;73190;50.780;5.658;2024-03-02T10:17:09;16.70;51.10
83283;DHT22;73190;50.780;5.658;2024-03-02T10:19:38;16.40;48.40
83283;DHT22;73190;50.780;5.658;2024-03-02T10:22:07;16.50;50.20
83283;DHT22;73190;50.780;5.658;2024-03-02T10:24:44;17.30;47.50
83283;DHT22;73190;50.780;5.658;2024-03-02T10:27:17;17.50;47.90
83283;DHT22;73190;50.780;5.658;2024-03-02T10:29:48;17.90;45.90
83283;DHT22;73190;50.780;5.658;2024-03-02T10:32:16;18.30;45.40
83283;DHT22;73190;50.780;5.658;2024-03-02T10:34:45;19.20;42.90
83283;DHT22;73190;50.780;5.658;2024-03-02T10:37:15;18.80;43.20
83283;DHT22;73190;50.780;5.658;2024-03-02T10:39:46;18.00;45.60
83283;DHT22;73190;50.780;5.658;2024-03-02T10:42:14;18.10;45.50
83283;DHT22;73190;50.780;5.658;2024-03-02T10:44:43;19.00;45.60
83283;DHT22;73190;50.780;5.658;2024-03-02T10:47:12;19.30;43.40
83283;DHT22;73190;50.780;5.658;2024-03-02T10:49:42;20.10;41.90
83283;DHT22;73190;50.780;5.658;2024-03-02T10:52:10;20.10;41.10
83283;DHT22;73190;50.780;5.658;2024-03-02T10:54:38;20.40;40.20
83283;DHT22;73190;50.780;5.658;2024-03-02T10:57:07;20.90;39.80
83283;DHT22;73190;50.780;5.658;2024-03-02T10:59:46;21.50;40.50
83283;DHT22;73190;50.780;5.658;2024-03-02T11:02:12;22.10;36.70
83283;DHT22;73190;50.780;5.658;2024-03-02T11:04:41;22.50;35.20
83283;DHT22;73190;50.780;5.658;2024-03-02T11:07:11;22.90;34.80
83283;DHT22;73190;50.780;5.658;2024-03-02T11:09:42;22.80;35.50
83283;DHT22;73190;50.780;5.658;2024-03-02T11:14:47;23.50;34.20
83283;DHT22;73190;50.780;5.658;2024-03-02T11:17:16;24.00;35.40
83283;DHT22;73190;50.780;5.658;2024-03-02T11:19:44;24.90;32.60
83283;DHT22;73190;50.780;5.658;2024-03-02T11:22:14;25.50;31.60
83283;DHT22;73190;50.780;5.658;2024-03-02T11:24:49;27.10;30.90
83283;DHT22;73190;50.780;5.658;2024-03-02T11:30:06;28.10;29.80
83283;DHT22;73190;50.780;5.658;2024-03-02T11:32:34;28.80;27.50
83283;DHT22;73190;50.780;5.658;2024-03-02T11:35:02;28.60;27.30
83283;DHT22;73190;50.780;5.658;2024-03-02T11:37:30;27.00;29.70
83283;DHT22;73190;50.780;5.658;2024-03-02T11:39:58;26.80;29.70
83283;DHT22;73190;50.780;5.658;2024-03-02T11:42:26;27.00;29.10
83283;DHT22;73190;50.780;5.658;2024-03-02T11:44:55;27.80;28.40
83283;DHT22;73190;50.780;5.658;2024-03-02T11:47:23;28.30;29.40
83283;DHT22;73190;50.780;5.658;2024-03-02T11:49:51;28.90;29.00
83283;DHT22;73190;50.780;5.658;2024-03-02T11:52:19;28.10;28.60
83283;DHT22;73190;50.780;5.658;2024-03-02T11:54:47;27.50;27.80
83283;DHT22;73190;50.780;5.658;2024-03-02T11:57:18;27.20;29.30
83283;DHT22;73190;50.780;5.658;2024-03-02T11:59:53;26.60;28.70
83283;DHT22;73190;50.780;5.658;2024-03-02T12:02:22;26.30;29.70
83283;DHT22;73190;50.780;5.658;2024-03-02T12:04:50;26.30;29.80
83283;DHT22;73190;50.780;5.658;2024-03-02T12:07:22;25.90;29.70
83283;DHT22;73190;50.780;5.658;2024-03-02T12:10:00;25.40;30.40
83283;DHT22;73190;50.780;5.658;2024-03-02T12:12:32;25.00;30.30
83283;DHT22;73190;50.780;5.658;2024-03-02T12:14:59;25.50;31.30
83283;DHT22;73190;50.780;5.658;2024-03-02T12:17:27;26.00;31.00
83283;DHT22;73190;50.780;5.658;2024-03-02T12:19:55;25.90;30.20
83283;DHT22;73190;50.780;5.658;2024-03-02T12:22:23;25.90;30.80
83283;DHT22;73190;50.780;5.658;2024-03-02T12:24:51;25.60;30.80
83283;DHT22;73190;50.780;5.658;2024-03-02T12:27:18;24.80;31.00
83283;DHT22;73190;50.780;5.658;2024-03-02T12:29:48;24.50;31.50
83283;DHT22;73190;50.780;5.658;2024-03-02T12:32:16;23.90;33.00
83283;DHT22;73190;50.780;5.658;2024-03-02T12:34:46;23.70;32.80
83283;DHT22;73190;50.780;5.658;2024-03-02T12:37:14;23.50;34.00
83283;DHT22;73190;50.780;5.658;2024-03-02T12:39:46;23.50;33.20
83283;DHT22;73190;50.780;5.658;2024-03-02T12:42:13;23.40;34.30
83283;DHT22;73190;50.780;5.658;2024-03-02T12:44:41;23.40;33.50
83283;DHT22;73190;50.780;5.658;2024-03-02T12:47:08;22.90;34.20
83283;DHT22;73190;50.780;5.658;2024-03-02T12:49:36;22.50;35.50
83283;DHT22;73190;50.780;5.658;2024-03-02T12:52:04;22.30;35.90
83283;DHT22;73190;50.780;5.658;2024-03-02T12:54:33;21.60;36.70
83283;DHT22;73190;50.780;5.658;2024-03-02T12:57:00;20.60;37.70
83283;DHT22;73190;50.780;5.658;2024-03-02T12:59:29;19.80;39.90
83283;DHT22;73190;50.780;5.658;2024-03-02T13:01:58;19.50;40.10
83283;DHT22;73190;50.780;5.658;2024-03-02T13:04:26;18.80;41.60
83283;DHT22;73190;50.780;5.658;2024-03-02T13:06:55;18.80;43.10
83283;DHT22;73190;50.780;5.658;2024-03-02T13:09:24;18.90;41.50
83283;DHT22;73190;50.780;5.658;2024-03-02T13:11:52;18.60;43.00
83283;DHT22;73190;50.780;5.658;2024-03-02T13:14:21;19.00;46.60
83283;DHT22;73190;50.780;5.658;2024-03-02T13:16:51;19.90;40.80
83283;DHT22;73190;50.780;5.658;2024-03-02T13:19:19;20.70;39.30
83283;DHT22;73190;50.780;5.658;2024-03-02T13:21:46;21.50;38.20
83283;DHT22;73190;50.780;5.658;2024-03-02T13:24:14;21.30;39.40
83283;DHT22;73190;50.780;5.658;2024-03-02T13:26:42;21.80;39.40
83283;DHT22;73190;50.780;5.658;2024-03-02T13:29:09;22.10;37.30
83283;DHT22;73190;50.780;5.658;2024-03-02T13:31:37;21.70;37.80
83283;DHT22;73190;50.780;5.658;2024-03-02T13:34:04;21.70;37.50
83283;DHT22;73190;50.780;5.658;2024-03-02T13:36:32;20.90;39.40
83283;DHT22;73190;50.780;5.658;2024-03-02T13:38:59;20.40;41.10
83283;DHT22;73190;50.780;5.658;2024-03-02T13:41:27;19.70;40.70
83283;DHT22;73190;50.780;5.658;2024-03-02T13:43:55;19.10;42.60
83283;DHT22;73190;50.780;5.658;2024-03-02T13:46:22;18.80;43.50
83283;DHT22;73190;50.780;5.658;2024-03-02T13:48:50;18.10;44.90
83283;DHT22;73190;50.780;5.658;2024-03-02T13:51:18;17.80;45.10
83283;DHT22;73190;50.780;5.658;2024-03-02T13:53:46;17.60;46.40
83283;DHT22;73190;50.780;5.658;2024-03-02T13:56:13;17.20;46.60
83283;DHT22;73190;50.780;5.658;2024-03-02T13:58:42;16.90;47.00
83283;DHT22;73190;50.780;5.658;2024-03-02T14:01:12;16.70;48.40
83283;DHT22;73190;50.780;5.658;2024-03-02T14:03:40;17.00;50.60
83283;DHT22;73190;50.780;5.658;2024-03-02T14:06:08;17.80;46.10
83283;DHT22;73190;50.780;5.658;2024-03-02T14:08:35;18.50;44.90
83283;DHT22;73190;50.780;5.658;2024-03-02T14:11:03;19.10;42.50
83283;DHT22;73190;50.780;5.658;2024-03-02T14:13:30;19.10;42.40
83283;DHT22;73190;50.780;5.658;2024-03-02T14:15:58;19.00;43.50
83283;DHT22;73190;50.780;5.658;2024-03-02T14:18:25;19.10;42.80
83283;DHT22;73190;50.780;5.658;2024-03-02T14:20:53;18.90;43.30
83283;DHT22;73190;50.780;5.658;2024-03-02T14:23:21;18.50;46.00
83283;DHT22;73190;50.780;5.658;2024-03-02T14:25:48;18.20;45.90
83283;DHT22;73190;50.780;5.658;2024-03-02T14:28:16;18.00;46.20
83283;DHT22;73190;50.780;5.658;2024-03-02T14:30:44;17.80;46.60
83283;DHT22;73190;50.780;5.658;2024-03-02T14:33:12;17.80;46.60
83283;DHT22;73190;50.780;5.658;2024-03-02T14:35:44;17.80;47.00
83283;DHT22;73190;50.780;5.658;2024-03-02T14:38:12;18.60;44.70
83283;DHT22;73190;50.780;5.658;2024-03-02T14:40:40;18.50;45.50
83283;DHT22;73190;50.780;5.658;2024-03-02T14:43:08;18.50;44.90
83283;DHT22;73190;50.780;5.658;2024-03-02T14:45:36;18.20;46.20
83283;DHT22;73190;50.780;5.658;2024-03-02T14:48:04;18.20;45.20
83283;DHT22;73190;50.780;5.658;2024-03-02T14:50:32;18.50;45.10
83283;DHT22;73190;50.780;5.658;2024-03-02T14:53:01;19.20;44.20
83283;DHT22;73190;50.780;5.658;2024-03-02T14:55:28;19.90;43.00
83283;DHT22;73190;50.780;5.658;2024-03-02T14:57:56;20.70;40.90
83283;DHT22;73190;50.780;5.658;2024-03-02T15:00:24;20.90;42.30
83283;DHT22;73190;50.780;5.658;2024-03-02T15:02:51;20.30;41.10
83283;DHT22;73190;50.780;5.658;2024-03-02T15:05:19;19.70;41.50
83283;DHT22;73190;50.780;5.658;2024-03-02T15:07:47;19.00;43.50
83283;DHT22;73190;50.780;5.658;2024-03-02T15:10:14;18.50;45.40
83283;DHT22;73190;50.780;5.658;2024-03-02T15:12:42;18.30;46.30
83283;DHT22;73190;50.780;5.658;2024-03-02T15:15:10;18.60;47.10
83283;DHT22;73190;50.780;5.658;2024-03-02T15:17:38;19.30;45.80
83283;DHT22;73190;50.780;5.658;2024-03-02T15:20:06;19.20;43.00
83283;DHT22;73190;50.780;5.658;2024-03-02T15:22:34;19.20;43.50
83283;DHT22;73190;50.780;5.658;2024-03-02T15:25:01;19.50;44.70
83283;DHT22;73190;50.780;5.658;2024-03-02T15:27:30;19.70;43.40
83283;DHT22;73190;50.780;5.658;2024-03-02T15:29:58;19.80;42.10
83283;DHT22;73190;50.780;5.658;2024-03-02T15:32:26;19.70;42.40
83283;DHT22;73190;50.780;5.658;2024-03-02T15:34:53;19.70;42.60
83283;DHT22;73190;50.780;5.658;2024-03-02T15:37:21;19.90;42.80
83283;DHT22;73190;50.780;5.658;2024-03-02T15:39:48;20.00;42.10
83283;DHT22;73190;50.780;5.658;2024-03-02T15:42:16;19.90;42.20
83283;DHT22;73190;50.780;5.658;2024-03-02T15:44:45;19.50;41.80
83283;DHT22;73190;50.780;5.658;2024-03-02T15:47:12;18.80;44.00
83283;DHT22;73190;50.780;5.658;2024-03-02T15:49:40;18.50;44.50
83283;DHT22;73190;50.780;5.658;2024-03-02T15:52:08;18.00;45.90
83283;DHT22;73190;50.780;5.658;2024-03-02T15:54:35;17.70;46.20